Terminal Aerodrome Forecast
Issued by NWS Charleston, WV

Current Version | Previous Version | Text Only | Print | Product List | Glossary On
Versions: 1 2 3 4 5 6 7 8 9 10 11 12 13 14 15 16 17 18 19 20 21 22 23 24 25
675
FTUS41 KRLX 290539 AAB
TAFCRW
TAF AMD
KCRW 290539Z 2906/3006 VRB05KT P6SM SCT070
     FM291300 19005KT P6SM SCT200=

USA.gov is the U.S. government's official web portal to all federal, state and local government web resources and services.